HUEN

Entebbe International Airport

Kampala, Uganda
METAR HUEN 261300Z 17005KT 9999 FEW023 FEW025CB 25/19 Q1016 NOSIG
Observed Flight Rules
May-26 @ 13:00 UTC (35 minutes ago) Visual Flight Rules
Wind Visibility Clouds
170° at 5 knots 10,000+ meters
  • Few at 2,300' AGL
  • Few at 2,500' AGL
Temperatures Readings
Current 25°C / 77°F
Dewpoint 19°C / 66°F
Humidity 69%
Altimeter 30" Hg
Pressure 1016 hPa
Elevation 1155
METAR HUEN 261300Z 17005KT 9999 FEW023 FEW025CB 25/19 Q1016 NOSIG
Observed Flight Rules
May-26 @ 13:00 UTC
(35 minutes ago)
VFR
Wind Visibility
170° at 5 knots 10,000+ meters
Clouds
  • Few at 2,300' AGL
  • Few at 2,500' AGL
Temperature Dewpoint
25°C / 77°F 19°C / 66°F
Humidity Altimeter Pressure
69% 30" Hg 1016 hPa